Time;durP1;ratioP1;P1;durP2;ratioP2;P2;SDS_P1;SDS_P2;PMS_P1;PMS_P2;Temp;Humidity;BMP_temperature;BMP_pressure;BME280_temperature;BME280_humidity;BME280_pressure;Samples;Min_cycle;Max_cycle;Signal;HPM_P1;HPM_P2
2021/07/04 00:00:45;;;;;;;14.75;6.65;;;;;;;;;;5085126;28;20051;-59
2021/07/04 00:03:12;;;;;;;11.40;5.90;;;;;;;;;;5065170;28;20101;-58
2021/07/04 00:05:40;;;;;;;13.93;6.57;;;;;;;;;;5065999;28;20039;-58
2021/07/04 00:08:08;;;;;;;11.77;5.90;;;;;;;;;;5062726;28;20059;-58
2021/07/04 00:10:36;;;;;;;10.82;5.43;;;;;;;;;;5064440;28;20101;-58
2021/07/04 00:13:03;;;;;;;9.97;5.63;;;;;;;;;;5062819;28;20040;-58
2021/07/04 00:15:34;;;;;;;12.93;5.47;;;;;;;;;;5064987;28;20041;-58
2021/07/04 00:18:01;;;;;;;10.85;5.38;;;;;;;;;;5062318;28;20113;-57
2021/07/04 00:20:27;;;;;;;12.32;6.20;;;;;;;;;;5066777;28;20052;-58
2021/07/04 00:22:55;;;;;;;10.20;5.72;;;;;;;;;;5089223;28;20096;-58
2021/07/04 00:25:22;;;;;;;19.67;6.07;;;;;;;;;;5084298;28;20043;-58
2021/07/04 00:27:48;;;;;;;10.45;5.70;;;;;;;;;;5074976;28;20046;-59
2021/07/04 00:30:17;;;;;;;10.10;5.63;;;;;;;;;;5065770;28;20051;-58
2021/07/04 00:32:44;;;;;;;11.38;5.80;;;;;;;;;;5062962;28;20028;-58
2021/07/04 00:35:13;;;;;;;8.50;5.00;;;;;;;;;;5065249;28;20055;-59
2021/07/04 00:37:40;;;;;;;10.43;4.53;;;;;;;;;;5059478;28;20543;-58
2021/07/04 00:40:06;;;;;;;8.43;4.38;;;;;;;;;;5065790;28;20036;-58
2021/07/04 00:42:34;;;;;;;9.32;4.32;;;;;;;;;;5041678;28;20098;-58
2021/07/04 00:45:01;;;;;;;8.50;4.35;;;;;;;;;;5059840;28;20044;-58
2021/07/04 00:47:27;;;;;;;9.98;4.00;;;;;;;;;;5060227;28;20048;-58
2021/07/04 00:49:55;;;;;;;8.70;4.20;;;;;;;;;;5057105;28;20048;-59
2021/07/04 00:52:21;;;;;;;7.75;4.25;;;;;;;;;;5080779;28;20044;-58
2021/07/04 00:54:48;;;;;;;8.10;4.10;;;;;;;;;;5057685;28;20044;-58
2021/07/04 00:57:14;;;;;;;6.68;3.85;;;;;;;;;;5045699;28;20041;-58
2021/07/04 00:59:41;;;;;;;7.78;3.97;;;;;;;;;;5052195;28;20104;-58
2021/07/04 01:02:07;;;;;;;7.47;3.90;;;;;;;;;;5043607;28;20052;-58
2021/07/04 01:04:34;;;;;;;9.80;3.97;;;;;;;;;;5041987;28;20125;-58
2021/07/04 01:07:02;;;;;;;13.68;4.43;;;;;;;;;;5043589;28;20047;-58
2021/07/04 01:09:29;;;;;;;9.85;4.40;;;;;;;;;;5042523;28;20059;-58
2021/07/04 01:11:57;;;;;;;7.70;4.07;;;;;;;;;;5044733;28;20044;-58
2021/07/04 01:14:24;;;;;;;10.30;4.28;;;;;;;;;;5040272;28;20068;-58
2021/07/04 01:16:51;;;;;;;8.13;4.15;;;;;;;;;;5044945;28;20036;-58
2021/07/04 01:19:18;;;;;;;7.93;4.32;;;;;;;;;;5059129;28;20064;-58
2021/07/04 01:21:46;;;;;;;8.63;4.60;;;;;;;;;;5044847;28;20033;-59
2021/07/04 01:24:14;;;;;;;8.70;4.10;;;;;;;;;;5059552;28;20044;-58
2021/07/04 01:26:42;;;;;;;7.63;4.07;;;;;;;;;;5042698;28;20049;-58
2021/07/04 01:29:08;;;;;;;7.97;4.20;;;;;;;;;;5044901;28;20104;-58
2021/07/04 01:31:35;;;;;;;8.60;4.53;;;;;;;;;;5054976;28;20060;-58
2021/07/04 01:34:02;;;;;;;9.50;4.40;;;;;;;;;;5061452;28;20056;-58
2021/07/04 01:36:28;;;;;;;9.55;4.38;;;;;;;;;;5041869;28;20110;-58
2021/07/04 01:38:55;;;;;;;10.10;4.47;;;;;;;;;;5040975;28;20048;-58
2021/07/04 01:41:23;;;;;;;7.88;4.35;;;;;;;;;;5038826;28;20045;-58
2021/07/04 01:43:49;;;;;;;9.77;4.30;;;;;;;;;;5040868;28;20095;-59
2021/07/04 01:46:15;;;;;;;9.18;3.42;;;;;;;;;;5038142;28;20130;-59
2021/07/04 01:48:42;;;;;;;8.95;3.67;;;;;;;;;;5040987;28;20033;-59
2021/07/04 01:51:09;;;;;;;9.70;3.20;;;;;;;;;;5036719;28;20052;-58
2021/07/04 01:53:37;;;;;;;6.78;3.75;;;;;;;;;;5040290;28;20045;-58
2021/07/04 01:56:06;;;;;;;7.18;3.60;;;;;;;;;;5037737;28;20062;-58
2021/07/04 01:58:34;;;;;;;7.25;3.78;;;;;;;;;;5041762;28;20053;-58
2021/07/04 02:01:00;;;;;;;7.07;3.55;;;;;;;;;;5037682;28;20077;-58
2021/07/04 02:03:27;;;;;;;8.45;3.22;;;;;;;;;;5039403;28;20056;-58
2021/07/04 02:05:53;;;;;;;7.60;3.47;;;;;;;;;;5036646;28;20041;-59
2021/07/04 02:08:20;;;;;;;8.57;3.65;;;;;;;;;;5039108;28;20030;-58
2021/07/04 02:10:46;;;;;;;13.93;3.72;;;;;;;;;;5062747;28;20045;-58
2021/07/04 02:13:12;;;;;;;7.18;3.55;;;;;;;;;;5038175;28;20049;-58
2021/07/04 02:15:41;;;;;;;8.73;3.90;;;;;;;;;;5038868;28;20044;-58
2021/07/04 02:18:08;;;;;;;7.05;3.47;;;;;;;;;;5039703;28;20130;-58
2021/07/04 02:20:36;;;;;;;6.13;3.40;;;;;;;;;;5040969;28;20135;-57
2021/07/04 02:23:04;;;;;;;7.45;3.50;;;;;;;;;;5040575;28;20167;-58
2021/07/04 02:25:31;;;;;;;6.22;3.22;;;;;;;;;;5044987;28;20041;-58
2021/07/04 02:27:57;;;;;;;9.00;3.72;;;;;;;;;;5040644;28;20045;-58
2021/07/04 02:30:24;;;;;;;5.97;3.15;;;;;;;;;;5043369;28;20056;-58
2021/07/04 02:32:52;;;;;;;8.55;3.20;;;;;;;;;;5050324;28;20040;-58
2021/07/04 02:35:18;;;;;;;8.93;3.42;;;;;;;;;;5053187;28;20036;-58
2021/07/04 02:37:45;;;;;;;6.38;3.40;;;;;;;;;;5057583;28;20030;-58
2021/07/04 02:40:12;;;;;;;18.75;3.85;;;;;;;;;;5053255;28;20044;-58
2021/07/04 02:42:38;;;;;;;6.32;3.33;;;;;;;;;;5061422;28;20060;-58
2021/07/04 02:45:05;;;;;;;6.80;3.67;;;;;;;;;;5045651;28;20044;-58
2021/07/04 02:47:32;;;;;;;6.80;3.40;;;;;;;;;;5043442;28;20036;-57
2021/07/04 02:50:00;;;;;;;7.78;3.50;;;;;;;;;;5046687;28;20036;-58
2021/07/04 02:52:26;;;;;;;6.72;3.92;;;;;;;;;;5045830;28;20118;-59
2021/07/04 02:54:53;;;;;;;10.02;3.67;;;;;;;;;;5044200;28;20052;-58
2021/07/04 02:57:19;;;;;;;9.70;3.90;;;;;;;;;;5063080;28;20061;-58
2021/07/04 02:59:45;;;;;;;8.40;3.80;;;;;;;;;;5076315;28;20047;-58
2021/07/04 03:02:12;;;;;;;9.00;3.88;;;;;;;;;;5096646;22;20065;-57
2021/07/04 03:04:38;;;;;;;7.90;4.25;;;;;;;;;;4999766;28;20045;-58
2021/07/04 03:07:06;;;;;;;7.35;4.18;;;;;;;;;;5006060;28;20030;-58
2021/07/04 03:09:33;;;;;;;9.30;4.80;;;;;;;;;;4998179;28;20185;-57
2021/07/04 03:12:11;;;;;;;9.98;4.82;;;;;;;;;;5005802;28;20058;-58
2021/07/04 03:14:38;;;;;;;12.15;4.63;;;;;;;;;;4998981;28;20044;-58
2021/07/04 03:17:05;;;;;;;7.22;4.32;;;;;;;;;;5004244;28;20046;-58
2021/07/04 03:19:33;;;;;;;7.50;4.38;;;;;;;;;;5003589;28;20038;-57
2021/07/04 03:22:00;;;;;;;8.10;4.55;;;;;;;;;;5017094;28;20046;-58
2021/07/04 03:24:28;;;;;;;8.30;4.78;;;;;;;;;;5005848;28;20059;-58
2021/07/04 03:26:55;;;;;;;10.55;5.03;;;;;;;;;;4997044;28;20062;-57
2021/07/04 03:29:21;;;;;;;9.93;4.90;;;;;;;;;;5004297;28;20050;-56
2021/07/04 03:31:54;;;;;;;13.63;5.28;;;;;;;;;;4995651;28;20044;-56
2021/07/04 03:34:20;;;;;;;9.70;5.15;;;;;;;;;;5002235;28;20034;-58
2021/07/04 03:36:48;;;;;;;12.52;5.97;;;;;;;;;;4998869;28;20065;-57
2021/07/04 03:39:14;;;;;;;9.32;5.20;;;;;;;;;;5005155;28;20046;-58
2021/07/04 03:41:44;;;;;;;10.23;5.30;;;;;;;;;;5005757;28;20078;-58
2021/07/04 03:44:11;;;;;;;11.05;5.20;;;;;;;;;;4997502;28;20046;-58
2021/07/04 03:46:37;;;;;;;9.55;5.45;;;;;;;;;;5004319;28;20034;-58
2021/07/04 03:49:04;;;;;;;12.55;5.63;;;;;;;;;;4997783;28;20050;-57
2021/07/04 03:51:35;;;;;;;14.27;5.68;;;;;;;;;;5020420;28;20049;-58
2021/07/04 03:54:01;;;;;;;13.15;5.18;;;;;;;;;;4998686;28;20053;-57
2021/07/04 03:56:28;;;;;;;12.27;5.82;;;;;;;;;;5005671;28;20030;-57
2021/07/04 03:58:56;;;;;;;15.43;5.55;;;;;;;;;;5002793;28;20113;-57
2021/07/04 04:01:26;;;;;;;12.30;5.50;;;;;;;;;;5020361;28;20042;-58
2021/07/04 04:03:52;;;;;;;10.90;5.63;;;;;;;;;;5005672;28;20057;-58
2021/07/04 04:06:19;;;;;;;9.50;5.55;;;;;;;;;;5002242;28;20129;-58
2021/07/04 04:08:46;;;;;;;12.80;5.20;;;;;;;;;;5006674;28;20037;-58
2021/07/04 04:11:17;;;;;;;10.45;4.93;;;;;;;;;;5008403;28;20042;-58
2021/07/04 04:13:43;;;;;;;12.68;4.97;;;;;;;;;;5006081;28;20045;-58
2021/07/04 04:16:11;;;;;;;9.60;5.20;;;;;;;;;;5002099;28;20065;-58
2021/07/04 04:18:38;;;;;;;9.03;4.90;;;;;;;;;;5007281;28;20049;-58
2021/07/04 04:21:05;;;;;;;8.57;5.13;;;;;;;;;;5004950;28;20358;-57
2021/07/04 04:23:32;;;;;;;8.68;5.28;;;;;;;;;;4981899;28;20046;-58
2021/07/04 04:25:58;;;;;;;9.20;4.95;;;;;;;;;;5003296;28;20038;-58
2021/07/04 04:28:25;;;;;;;12.40;5.28;;;;;;;;;;4999770;28;20041;-58
2021/07/04 04:30:56;;;;;;;9.20;5.05;;;;;;;;;;5005784;28;20124;-58
2021/07/04 04:33:24;;;;;;;10.55;5.45;;;;;;;;;;5002901;28;20109;-58
2021/07/04 04:35:51;;;;;;;12.98;5.40;;;;;;;;;;5007233;28;20045;-58
2021/07/04 04:38:17;;;;;;;8.25;4.97;;;;;;;;;;5007361;28;20046;-58
2021/07/04 04:40:46;;;;;;;10.82;5.95;;;;;;;;;;5022819;28;20030;-58
2021/07/04 04:43:12;;;;;;;9.40;5.28;;;;;;;;;;5001754;28;20156;-58
2021/07/04 04:45:39;;;;;;;10.60;5.03;;;;;;;;;;5021591;28;20364;-58
2021/07/04 04:48:05;;;;;;;10.30;5.50;;;;;;;;;;4995903;28;20136;-58
2021/07/04 04:50:33;;;;;;;12.15;5.80;;;;;;;;;;4985911;28;20050;-57
2021/07/04 04:53:00;;;;;;;16.45;6.00;;;;;;;;;;4982417;28;20051;-58
2021/07/04 04:55:27;;;;;;;10.55;5.93;;;;;;;;;;4986367;28;20049;-57
2021/07/04 04:57:54;;;;;;;13.03;6.50;;;;;;;;;;4982993;28;20157;-57
2021/07/04 05:00:20;;;;;;;13.48;5.75;;;;;;;;;;4985611;28;20094;-58
2021/07/04 05:02:47;;;;;;;11.50;6.10;;;;;;;;;;4999307;28;20088;-58
2021/07/04 05:05:14;;;;;;;9.63;5.85;;;;;;;;;;5017949;28;20091;-59
2021/07/04 05:07:42;;;;;;;11.50;6.55;;;;;;;;;;5025433;28;20051;-58
2021/07/04 05:10:09;;;;;;;13.70;6.18;;;;;;;;;;5011927;28;20038;-57
2021/07/04 05:12:40;;;;;;;13.85;6.88;;;;;;;;;;5024766;28;20041;-56
2021/07/04 05:15:07;;;;;;;14.98;7.20;;;;;;;;;;5020684;28;20037;-58
2021/07/04 05:17:33;;;;;;;18.15;8.43;;;;;;;;;;5023800;28;20036;-57
2021/07/04 05:20:00;;;;;;;21.83;8.73;;;;;;;;;;5022445;28;20034;-58
2021/07/04 05:22:30;;;;;;;17.15;9.40;;;;;;;;;;5025508;28;20033;-56
2021/07/04 05:24:58;;;;;;;18.02;10.02;;;;;;;;;;5020217;28;20107;-58
2021/07/04 05:27:25;;;;;;;17.77;9.40;;;;;;;;;;5024303;28;20095;-57
2021/07/04 05:29:51;;;;;;;18.95;10.65;;;;;;;;;;5011539;28;20279;-57
2021/07/04 05:32:21;;;;;;;23.23;11.23;;;;;;;;;;5006560;28;20119;-55
2021/07/04 05:34:48;;;;;;;26.33;12.23;;;;;;;;;;4996171;28;20035;-56
2021/07/04 05:37:15;;;;;;;29.95;15.65;;;;;;;;;;4986482;28;20034;-58
2021/07/04 05:39:41;;;;;;;32.85;16.13;;;;;;;;;;4982517;28;20042;-58
2021/07/04 05:42:10;;;;;;;31.05;14.75;;;;;;;;;;4984103;28;20027;-58
2021/07/04 05:44:37;;;;;;;28.52;14.88;;;;;;;;;;4981632;28;20030;-57
2021/07/04 05:47:03;;;;;;;32.70;16.27;;;;;;;;;;5001311;28;20120;-57
2021/07/04 05:49:30;;;;;;;33.97;17.30;;;;;;;;;;5003973;28;20177;-58
2021/07/04 05:51:56;;;;;;;34.25;17.13;;;;;;;;;;5019236;28;20152;-57
2021/07/04 05:54:23;;;;;;;35.85;18.23;;;;;;;;;;5023194;28;20040;-57
2021/07/04 05:56:49;;;;;;;35.33;18.38;;;;;;;;;;5018364;28;20030;-58
2021/07/04 05:59:17;;;;;;;36.25;17.48;;;;;;;;;;5023712;28;20053;-57
2021/07/04 06:01:44;;;;;;;33.20;17.60;;;;;;;;;;5020418;28;20073;-57
2021/07/04 06:04:10;;;;;;;36.70;17.58;;;;;;;;;;5026214;28;20073;-58
2021/07/04 06:06:37;;;;;;;36.25;16.63;;;;;;;;;;5011229;28;20049;-56
2021/07/04 06:09:03;;;;;;;38.42;18.45;;;;;;;;;;5010600;28;20053;-58
2021/07/04 06:11:30;;;;;;;39.83;19.25;;;;;;;;;;5039577;28;20041;-57
2021/07/04 06:13:56;;;;;;;35.05;17.90;;;;;;;;;;5030206;28;20044;-57
2021/07/04 06:16:24;;;;;;;36.33;17.63;;;;;;;;;;5044517;28;20069;-57
2021/07/04 06:18:51;;;;;;;35.65;17.63;;;;;;;;;;5027155;28;20131;-57
2021/07/04 06:21:25;;;;;;;34.10;16.88;;;;;;;;;;5025056;28;20041;-57
2021/07/04 06:23:51;;;;;;;33.20;17.08;;;;;;;;;;5027160;28;20034;-58
2021/07/04 06:26:18;;;;;;;35.95;18.52;;;;;;;;;;5022877;28;20056;-58
2021/07/04 06:28:44;;;;;;;36.63;17.33;;;;;;;;;;5007796;28;20040;-58
2021/07/04 06:31:11;;;;;;;36.58;18.48;;;;;;;;;;5005067;28;20120;-58
2021/07/04 06:33:39;;;;;;;41.28;18.98;;;;;;;;;;5023648;28;20041;-57
2021/07/04 06:36:06;;;;;;;36.10;18.13;;;;;;;;;;5026816;28;20041;-58
2021/07/04 06:38:32;;;;;;;34.30;17.63;;;;;;;;;;5023752;28;20033;-58
2021/07/04 06:41:06;;;;;;;40.72;18.33;;;;;;;;;;5028105;28;20037;-58
2021/07/04 06:43:32;;;;;;;41.40;17.48;;;;;;;;;;5024341;28;20040;-57
2021/07/04 06:45:59;;;;;;;36.55;18.05;;;;;;;;;;5025753;28;20045;-58
2021/07/04 06:48:25;;;;;;;38.47;19.23;;;;;;;;;;5017082;28;20045;-57
2021/07/04 06:51:03;;;;;;;38.40;17.60;;;;;;;;;;5027182;28;20073;-58
2021/07/04 06:53:30;;;;;;;35.38;17.52;;;;;;;;;;5011742;28;20057;-58
2021/07/04 06:55:56;;;;;;;36.72;17.55;;;;;;;;;;5008388;28;20123;-58
2021/07/04 06:58:23;;;;;;;41.00;18.38;;;;;;;;;;5014052;28;20041;-56
2021/07/04 07:00:59;;;;;;;41.25;18.48;;;;;;;;;;5027725;28;20064;-58
2021/07/04 07:03:25;;;;;;;40.17;19.05;;;;;;;;;;5032524;28;20087;-58
2021/07/04 07:05:52;;;;;;;44.13;19.17;;;;;;;;;;5034804;28;20037;-58
2021/07/04 07:08:19;;;;;;;44.58;19.85;;;;;;;;;;5048065;28;20048;-58
2021/07/04 07:10:58;;;;;;;37.45;19.38;;;;;;;;;;5053131;28;20049;-58
2021/07/04 07:13:24;;;;;;;41.65;19.45;;;;;;;;;;5030074;28;20053;-58
2021/07/04 07:15:51;;;;;;;38.35;18.38;;;;;;;;;;5031352;28;20041;-57
2021/07/04 07:18:17;;;;;;;37.40;19.23;;;;;;;;;;5041194;28;20046;-58
2021/07/04 07:20:44;;;;;;;40.67;19.98;;;;;;;;;;5053646;28;20070;-58
2021/07/04 07:23:10;;;;;;;34.55;17.10;;;;;;;;;;5046870;28;20067;-58
2021/07/04 07:25:38;;;;;;;38.75;18.15;;;;;;;;;;5031570;28;20045;-57
2021/07/04 07:28:05;;;;;;;34.90;17.25;;;;;;;;;;5048130;28;20029;-58
2021/07/04 07:30:32;;;;;;;40.00;18.83;;;;;;;;;;5046167;28;20057;-58
2021/07/04 07:32:58;;;;;;;41.92;18.27;;;;;;;;;;5034184;28;20033;-56
2021/07/04 07:35:25;;;;;;;39.60;18.25;;;;;;;;;;5030585;28;20111;-58
2021/07/04 07:37:52;;;;;;;39.20;19.33;;;;;;;;;;5054787;28;20118;-58
2021/07/04 07:40:19;;;;;;;43.03;19.25;;;;;;;;;;5050457;28;20043;-58
2021/07/04 07:42:50;;;;;;;38.90;16.70;;;;;;;;;;5028201;28;20073;-58
2021/07/04 07:45:16;;;;;;;35.40;17.17;;;;;;;;;;5039003;28;20041;-59
2021/07/04 07:47:43;;;;;;;36.60;18.17;;;;;;;;;;5045422;28;20037;-58
2021/07/04 07:50:10;;;;;;;34.28;16.60;;;;;;;;;;5049523;28;20048;-58
2021/07/04 07:52:38;;;;;;;35.95;17.48;;;;;;;;;;5043554;28;20037;-59
2021/07/04 07:55:05;;;;;;;38.97;17.25;;;;;;;;;;5029484;28;20033;-58
2021/07/04 07:57:31;;;;;;;36.97;17.13;;;;;;;;;;5036299;28;20041;-59
2021/07/04 07:59:59;;;;;;;36.65;17.30;;;;;;;;;;5025577;28;20080;-60
2021/07/04 08:02:26;;;;;;;29.70;15.45;;;;;;;;;;5021096;28;20048;-58
2021/07/04 08:04:52;;;;;;;29.50;15.15;;;;;;;;;;5017556;28;20101;-59
2021/07/04 08:07:19;;;;;;;31.73;14.88;;;;;;;;;;5017960;28;20092;-58
2021/07/04 08:09:45;;;;;;;33.45;16.45;;;;;;;;;;5003339;28;20042;-59
2021/07/04 08:12:21;;;;;;;37.22;17.58;;;;;;;;;;5003045;28;20034;-58
2021/07/04 08:14:47;;;;;;;36.20;16.00;;;;;;;;;;5005784;28;20046;-58
2021/07/04 08:17:15;;;;;;;28.85;15.02;;;;;;;;;;4998798;28;20038;-58
2021/07/04 08:19:42;;;;;;;35.45;16.55;;;;;;;;;;4986324;28;20043;-59
2021/07/04 08:22:12;;;;;;;35.40;16.58;;;;;;;;;;4987056;28;20038;-59
2021/07/04 08:24:39;;;;;;;37.13;17.23;;;;;;;;;;5005105;28;20045;-58
2021/07/04 08:27:06;;;;;;;28.33;14.70;;;;;;;;;;5002004;28;20093;-59
2021/07/04 08:29:32;;;;;;;33.70;16.27;;;;;;;;;;5006395;28;20046;-59
2021/07/04 08:32:00;;;;;;;33.92;16.20;;;;;;;;;;4993218;28;20154;-58
2021/07/04 08:34:28;;;;;;;27.35;14.38;;;;;;;;;;4997042;28;20050;-59
2021/07/04 08:36:55;;;;;;;29.27;15.02;;;;;;;;;;5001245;28;20112;-58
2021/07/04 08:39:21;;;;;;;31.25;15.23;;;;;;;;;;5006270;28;20030;-58
2021/07/04 08:41:55;;;;;;;31.80;15.40;;;;;;;;;;5002832;28;20034;-59
2021/07/04 08:44:22;;;;;;;32.20;15.20;;;;;;;;;;5007401;28;20050;-58
2021/07/04 08:46:49;;;;;;;27.73;14.68;;;;;;;;;;5002623;28;20096;-59
2021/07/04 08:49:15;;;;;;;34.55;14.70;;;;;;;;;;5004992;28;20221;-59
2021/07/04 08:51:50;;;;;;;31.55;14.45;;;;;;;;;;5003455;28;20034;-58
2021/07/04 08:54:16;;;;;;;32.33;15.07;;;;;;;;;;4992943;28;20036;-59
2021/07/04 08:56:43;;;;;;;32.03;13.75;;;;;;;;;;4996297;28;20054;-59
2021/07/04 08:59:11;;;;;;;29.80;14.02;;;;;;;;;;4965258;28;20055;-58
2021/07/04 09:01:45;;;;;;;28.58;14.10;;;;;;;;;;4966446;28;20038;-59
2021/07/04 09:04:13;;;;;;;29.58;14.73;;;;;;;;;;5018160;28;20058;-58
2021/07/04 09:06:41;;;;;;;30.87;14.23;;;;;;;;;;5023906;28;20025;-59
2021/07/04 09:09:19;;;;;;;32.40;15.80;;;;;;;;;;5020985;28;20025;-59
2021/07/04 09:11:57;;;;;;;26.00;12.68;;;;;;;;;;5020779;28;20040;-58
2021/07/04 09:14:25;;;;;;;24.33;13.07;;;;;;;;;;5025421;28;20033;-58
2021/07/04 09:16:52;;;;;;;25.02;13.10;;;;;;;;;;5027032;28;20048;-59
2021/07/04 09:19:18;;;;;;;34.47;12.93;;;;;;;;;;5025905;28;20045;-58
2021/07/04 09:21:58;;;;;;;26.45;13.75;;;;;;;;;;5028736;28;20048;-58
2021/07/04 09:24:27;;;;;;;30.65;14.70;;;;;;;;;;4994166;28;20108;-58
2021/07/04 09:26:54;;;;;;;24.80;12.30;;;;;;;;;;5003827;28;20069;-59
2021/07/04 09:29:39;;;;;;;22.55;12.02;;;;;;;;;;5013711;28;20040;-59
2021/07/04 09:32:28;;;;;;;25.17;13.40;;;;;;;;;;5027410;28;20109;-58
2021/07/04 09:35:00;;;;;;;25.13;13.13;;;;;;;;;;5024176;28;20029;-58
2021/07/04 09:37:28;;;;;;;28.35;13.40;;;;;;;;;;5022616;28;20034;-59
2021/07/04 09:40:07;;;;;;;26.65;12.45;;;;;;;;;;5035831;28;20034;-58
2021/07/04 09:42:53;;;;;;;25.48;11.85;;;;;;;;;;5024253;28;20044;-59
2021/07/04 09:45:21;;;;;;;25.40;11.63;;;;;;;;;;5018957;28;20056;-59
2021/07/04 09:47:51;;;;;;;27.27;12.27;;;;;;;;;;5040004;28;20054;-59
2021/07/04 09:50:17;;;;;;;25.65;12.25;;;;;;;;;;5028103;28;20042;-59
2021/07/04 09:52:55;;;;;;;22.67;11.95;;;;;;;;;;5019495;28;20041;-59
2021/07/04 09:55:23;;;;;;;22.27;10.57;;;;;;;;;;5040316;28;20045;-59
2021/07/04 09:57:53;;;;;;;20.50;9.68;;;;;;;;;;5025848;28;20137;-59
2021/07/04 10:00:20;;;;;;;17.73;8.63;;;;;;;;;;5028612;28;20056;-59
2021/07/04 10:03:02;;;;;;;23.55;10.13;;;;;;;;;;5014872;28;20042;-59
2021/07/04 10:05:30;;;;;;;21.38;10.07;;;;;;;;;;5020821;28;20046;-59
2021/07/04 10:07:56;;;;;;;;;;;;;;;;;;5023551;28;20034;-59
2021/07/04 10:10:24;;;;;;;23.48;10.07;;;;;;;;;;5011670;28;19917;-59
2021/07/04 10:13:04;;;;;;;19.25;10.25;;;;;;;;;;5019898;28;20049;-59
2021/07/04 10:15:30;;;;;;;21.67;10.95;;;;;;;;;;4999132;28;20065;-59
2021/07/04 10:17:57;;;;;;;21.55;10.32;;;;;;;;;;5002437;28;20034;-59
2021/07/04 10:20:23;;;;;;;20.60;9.73;;;;;;;;;;5001581;28;20073;-59
2021/07/04 10:22:56;;;;;;;19.67;8.75;;;;;;;;;;5022489;28;20049;-59
2021/07/04 10:25:24;;;;;;;18.08;9.27;;;;;;;;;;5020495;28;20118;-59
2021/07/04 10:27:51;;;;;;;23.25;10.25;;;;;;;;;;5003258;28;20038;-59
2021/07/04 10:30:18;;;;;;;19.38;8.88;;;;;;;;;;5002436;28;20050;-59
2021/07/04 10:33:04;;;;;;;22.40;9.95;;;;;;;;;;5017803;28;20042;-60
2021/07/04 10:35:30;;;;;;;19.77;10.27;;;;;;;;;;5023847;28;20120;-59
2021/07/04 10:38:11;;;;;;;20.70;10.57;;;;;;;;;;5021548;28;20034;-59
2021/07/04 10:40:40;;;;;;;22.58;10.90;;;;;;;;;;5023748;28;20042;-59
2021/07/04 10:43:07;;;;;;;22.20;11.00;;;;;;;;;;5005423;28;20049;-59
2021/07/04 10:45:35;;;;;;;20.60;9.98;;;;;;;;;;5019942;28;20041;-59
2021/07/04 10:48:17;;;;;;;19.23;10.40;;;;;;;;;;5020915;28;20048;-59
2021/07/04 10:50:58;;;;;;;19.20;9.65;;;;;;;;;;5026440;28;20042;-59
2021/07/04 10:53:44;;;;;;;19.92;11.52;;;;;;;;;;5024026;28;20128;-59
2021/07/04 10:56:31;;;;;;;22.58;10.85;;;;;;;;;;5024963;28;20043;-58
2021/07/04 10:59:02;;;;;;;24.08;11.02;;;;;;;;;;5003299;28;20046;-59
2021/07/04 11:01:47;;;;;;;20.83;10.52;;;;;;;;;;5034733;28;20033;-59
2021/07/04 11:04:28;;;;;;;19.10;10.30;;;;;;;;;;5022716;28;20042;-59
2021/07/04 11:06:54;;;;;;;21.33;10.05;;;;;;;;;;5006542;28;20038;-59
2021/07/04 11:09:21;;;;;;;21.85;10.02;;;;;;;;;;5023979;28;20029;-59
2021/07/04 11:11:49;;;;;;;20.63;10.68;;;;;;;;;;5032049;28;20057;-59
2021/07/04 11:14:17;;;;;;;21.75;11.55;;;;;;;;;;5008798;28;20062;-59
2021/07/04 11:16:58;;;;;;;23.15;11.40;;;;;;;;;;5013438;28;20040;-59
2021/07/04 11:19:24;;;;;;;20.17;10.00;;;;;;;;;;5040028;28;20053;-59
2021/07/04 11:21:56;;;;;;;20.83;10.98;;;;;;;;;;5041297;28;20037;-59
2021/07/04 11:24:24;;;;;;;15.27;8.02;;;;;;;;;;5039641;28;20041;-59
2021/07/04 11:27:09;;;;;;;15.45;7.78;;;;;;;;;;5025191;28;20037;-59
2021/07/04 11:29:37;;;;;;;14.98;8.02;;;;;;;;;;5022023;28;20041;-59
2021/07/04 11:32:19;;;;;;;18.10;8.57;;;;;;;;;;5036680;28;20046;-59
2021/07/04 11:34:49;;;;;;;22.17;9.90;;;;;;;;;;4990314;28;20049;-59
2021/07/04 11:37:15;;;;;;;19.60;8.88;;;;;;;;;;4997141;28;20030;-58
2021/07/04 11:39:42;;;;;;;19.75;9.20;;;;;;;;;;5016224;28;20037;-58
2021/07/04 11:42:08;;;;;;;22.95;10.10;;;;;;;;;;5041366;28;20115;-59
2021/07/04 11:44:35;;;;;;;17.35;9.60;;;;;;;;;;5022704;28;20053;-59
2021/07/04 11:47:03;;;;;;;16.77;7.80;;;;;;;;;;5042344;28;20037;-60
2021/07/04 11:49:32;;;;;;;16.90;7.32;;;;;;;;;;5037289;28;20050;-59
2021/07/04 11:52:06;;;;;;;18.85;9.55;;;;;;;;;;5041397;28;20021;-59
2021/07/04 11:54:33;;;;;;;18.38;8.50;;;;;;;;;;5019756;28;20021;-59
2021/07/04 11:57:29;;;;;;;20.58;9.52;;;;;;;;;;5025306;28;20034;-59
2021/07/04 11:59:52;;;;;;;14.38;7.28;;;;;;;;;;5017584;28;20128;-59
2021/07/04 12:02:20;;;;;;;14.88;8.25;;;;;;;;;;5005220;28;20042;-59
2021/07/04 12:04:46;;;;;;;12.30;6.05;;;;;;;;;;4996699;28;20030;-58
2021/07/04 12:07:13;;;;;;;10.10;5.43;;;;;;;;;;5019792;28;20050;-59
2021/07/04 12:09:41;;;;;;;14.98;5.93;;;;;;;;;;5002415;28;20146;-60
2021/07/04 12:12:20;;;;;;;15.75;7.53;;;;;;;;;;5021846;28;20053;-59
2021/07/04 12:14:47;;;;;;;20.10;6.93;;;;;;;;;;5000219;28;20034;-59
2021/07/04 12:17:26;;;;;;;15.68;6.35;;;;;;;;;;5003701;28;20158;-59
2021/07/04 12:20:05;;;;;;;13.75;6.32;;;;;;;;;;5002970;28;20046;-58
2021/07/04 12:22:42;;;;;;;10.77;5.40;;;;;;;;;;5021379;28;20042;-59
2021/07/04 12:25:14;;;;;;;12.25;5.82;;;;;;;;;;5002508;28;20053;-59
2021/07/04 12:27:42;;;;;;;15.73;6.93;;;;;;;;;;5003633;28;20054;-59
2021/07/04 12:30:08;;;;;;;;;;;;;;;;;;5018055;28;20038;-58
2021/07/04 12:32:45;;;;;;;14.43;7.28;;;;;;;;;;5000268;28;19929;-59
2021/07/04 12:35:18;;;;;;;14.90;7.20;;;;;;;;;;5004580;28;20054;-59
2021/07/04 12:37:45;;;;;;;17.98;7.07;;;;;;;;;;5001548;28;20044;-59
2021/07/04 12:40:14;;;;;;;16.92;8.52;;;;;;;;;;4987185;28;20042;-59
2021/07/04 12:42:42;;;;;;;;;;;;;;;;;;4980674;28;20070;-59
2021/07/04 12:45:11;;;;;;;20.25;8.05;;;;;;;;;;4984181;28;19938;-59
2021/07/04 12:47:38;;;;;;;15.82;7.60;;;;;;;;;;4980296;28;20050;-59
2021/07/04 12:50:08;;;;;;;16.70;7.30;;;;;;;;;;5006868;28;20042;-59
2021/07/04 12:52:37;;;;;;;15.07;7.75;;;;;;;;;;5017077;28;20038;-59
2021/07/04 12:55:04;;;;;;;15.15;8.43;;;;;;;;;;5022717;28;20049;-59
2021/07/04 12:57:34;;;;;;;16.08;8.30;;;;;;;;;;4998832;28;20038;-59
2021/07/04 13:00:14;;;;;;;14.35;7.53;;;;;;;;;;5020665;28;20169;-59
2021/07/04 13:02:41;;;;;;;19.65;7.53;;;;;;;;;;4996373;28;20042;-59
2021/07/04 13:05:10;;;;;;;14.98;7.80;;;;;;;;;;5001915;28;20113;-59
2021/07/04 13:07:36;;;;;;;;;;;;;;;;;;4981746;28;20047;-59
2021/07/04 13:10:03;;;;;;;14.48;6.63;;;;;;;;;;4983355;28;19918;-59
2021/07/04 13:12:38;;;;;;;11.00;4.70;;;;;;;;;;4980264;28;20053;-59
2021/07/04 13:15:08;;;;;;;8.00;3.95;;;;;;;;;;4985885;28;20050;-59
2021/07/04 13:17:38;;;;;;;12.85;4.78;;;;;;;;;;4980215;28;20046;-59
2021/07/04 13:20:06;;;;;;;10.95;4.90;;;;;;;;;;4985721;28;20071;-60
2021/07/04 13:22:44;;;;;;;10.02;4.35;;;;;;;;;;4982071;28;20111;-59
2021/07/04 13:25:11;;;;;;;;;;;;;;;;;;4985498;28;20045;-59
2021/07/04 13:27:38;;;;;;;9.45;4.75;;;;;;;;;;4979001;28;20003;-59
2021/07/04 13:30:08;;;;;;;10.38;5.10;;;;;;;;;;4985018;28;20046;-59
2021/07/04 13:32:52;;;;;;;7.30;4.07;;;;;;;;;;4983584;28;20038;-59
2021/07/04 13:35:18;;;;;;;8.77;3.10;;;;;;;;;;4984430;28;20055;-59
2021/07/04 13:37:53;;;;;;;7.60;3.65;;;;;;;;;;4984673;28;20137;-60
2021/07/04 13:40:20;;;;;;;7.43;3.72;;;;;;;;;;4999459;28;20066;-59
2021/07/04 13:42:48;;;;;;;10.00;4.13;;;;;;;;;;4985711;28;20039;-60
2021/07/04 13:45:26;;;;;;;11.00;4.30;;;;;;;;;;4980312;28;20034;-59
2021/07/04 13:47:52;;;;;;;14.27;4.20;;;;;;;;;;5000940;28;20065;-60
2021/07/04 13:50:19;;;;;;;9.70;3.90;;;;;;;;;;4980545;28;20038;-59
2021/07/04 13:52:55;;;;;;;9.68;4.05;;;;;;;;;;4984766;28;20154;-61
2021/07/04 13:55:23;;;;;;;8.20;3.80;;;;;;;;;;4997208;28;20038;-59
2021/07/04 13:57:50;;;;;;;7.50;4.20;;;;;;;;;;5005162;28;20081;-59
2021/07/04 14:00:17;;;;;;;12.32;3.88;;;;;;;;;;5015655;28;20053;-59
2021/07/04 14:02:43;;;;;;;11.05;4.10;;;;;;;;;;5021929;28;20034;-59
2021/07/04 14:05:11;;;;;;;10.98;3.78;;;;;;;;;;4999828;28;20056;-59
2021/07/04 14:07:38;;;;;;;;;;;;;;;;;;5020758;28;20057;-59
2021/07/04 14:10:06;;;;;;;11.52;4.10;;;;;;;;;;4997843;28;19933;-60
2021/07/04 14:12:33;;;;;;;12.20;5.32;;;;;;;;;;5020063;28;20049;-59
2021/07/04 14:15:00;;;;;;;10.88;5.25;;;;;;;;;;4999901;28;20050;-59
2021/07/04 14:17:27;;;;;;;9.70;4.30;;;;;;;;;;5004352;28;20226;-59
2021/07/04 14:19:54;;;;;;;2.23;1.30;;;;;;;;;;5019185;28;20044;-59
2021/07/04 14:22:21;;;;;;;2.85;1.00;;;;;;;;;;5022395;28;20081;-59
2021/07/04 14:24:47;;;;;;;1.65;0.80;;;;;;;;;;5018085;28;20031;-59
2021/07/04 14:27:15;;;;;;;4.28;1.25;;;;;;;;;;5007422;28;20026;-59
2021/07/04 14:29:42;;;;;;;3.35;1.20;;;;;;;;;;5022662;28;20054;-59
2021/07/04 14:32:09;;;;;;;3.60;0.80;;;;;;;;;;5016159;28;20065;-58
2021/07/04 14:34:35;;;;;;;2.53;1.02;;;;;;;;;;5003169;28;20042;-58
2021/07/04 14:37:02;;;;;;;2.92;1.67;;;;;;;;;;5000517;28;20046;-57
2021/07/04 14:39:29;;;;;;;1.77;0.75;;;;;;;;;;5020492;28;20088;-58